sensor_id;sensor_type;location;lat;lon;timestamp;pressure;altitude;pressure_sealevel;temperature;humidity
46782;BME280;32541;46.298;11.506;2023-03-03T00:01:35;89351.53;;;-0.90;94.71
46782;BME280;32541;46.298;11.506;2023-03-03T00:04:00;89348.31;;;-0.89;94.48
46782;BME280;32541;46.298;11.506;2023-03-03T00:06:26;89352.84;;;-0.78;93.85
46782;BME280;32541;46.298;11.506;2023-03-03T00:08:52;89344.94;;;-0.76;93.75
46782;BME280;32541;46.298;11.506;2023-03-03T00:11:17;89349.09;;;-0.75;93.78
46782;BME280;32541;46.298;11.506;2023-03-03T00:13:51;89346.63;;;-0.92;94.31
46782;BME280;32541;46.298;11.506;2023-03-03T00:18:50;89347.47;;;-0.97;95.55
46782;BME280;32541;46.298;11.506;2023-03-03T00:21:30;89345.06;;;-1.00;96.14
46782;BME280;32541;46.298;11.506;2023-03-03T00:24:21;89342.34;;;-1.00;97.30
46782;BME280;32541;46.298;11.506;2023-03-03T00:26:54;89349.03;;;-0.88;96.53
46782;BME280;32541;46.298;11.506;2023-03-03T00:29:30;89342.06;;;-0.97;96.25
46782;BME280;32541;46.298;11.506;2023-03-03T00:32:11;89337.41;;;-0.96;96.14
46782;BME280;32541;46.298;11.506;2023-03-03T00:34:41;89348.19;;;-0.96;95.21
46782;BME280;32541;46.298;11.506;2023-03-03T00:37:24;89343.81;;;-0.99;95.37
46782;BME280;32541;46.298;11.506;2023-03-03T00:39:50;89339.25;;;-1.04;95.81
46782;BME280;32541;46.298;11.506;2023-03-03T00:42:17;89334.13;;;-1.08;95.32
46782;BME280;32541;46.298;11.506;2023-03-03T00:44:48;89336.38;;;-1.12;96.81
46782;BME280;32541;46.298;11.506;2023-03-03T00:49:48;89338.31;;;-1.07;96.09
46782;BME280;32541;46.298;11.506;2023-03-03T00:52:16;89334.22;;;-1.14;95.44
46782;BME280;32541;46.298;11.506;2023-03-03T00:54:42;89333.78;;;-1.18;95.87
46782;BME280;32541;46.298;11.506;2023-03-03T00:57:07;89335.09;;;-1.24;95.43
46782;BME280;32541;46.298;11.506;2023-03-03T00:59:33;89331.16;;;-1.23;95.26
46782;BME280;32541;46.298;11.506;2023-03-03T01:01:58;89331.25;;;-1.29;95.95
46782;BME280;32541;46.298;11.506;2023-03-03T01:04:24;89323.44;;;-1.32;95.73
46782;BME280;32541;46.298;11.506;2023-03-03T01:06:50;89328.53;;;-1.29;95.62
46782;BME280;32541;46.298;11.506;2023-03-03T01:09:15;89327.00;;;-1.24;95.34
46782;BME280;32541;46.298;11.506;2023-03-03T01:11:41;89322.28;;;-1.37;95.23
46782;BME280;32541;46.298;11.506;2023-03-03T01:14:06;89317.75;;;-1.29;94.83
46782;BME280;32541;46.298;11.506;2023-03-03T01:16:32;89324.59;;;-1.28;94.14
46782;BME280;32541;46.298;11.506;2023-03-03T01:18:58;89314.41;;;-1.35;95.04
46782;BME280;32541;46.298;11.506;2023-03-03T01:21:23;89318.56;;;-1.34;94.76
46782;BME280;32541;46.298;11.506;2023-03-03T01:23:49;89311.09;;;-1.28;94.88
46782;BME280;32541;46.298;11.506;2023-03-03T01:26:14;89318.56;;;-1.34;94.83
46782;BME280;32541;46.298;11.506;2023-03-03T01:28:39;89314.91;;;-1.36;95.05
46782;BME280;32541;46.298;11.506;2023-03-03T01:31:05;89315.88;;;-1.34;94.85
46782;BME280;32541;46.298;11.506;2023-03-03T01:33:32;89311.19;;;-1.33;94.18
46782;BME280;32541;46.298;11.506;2023-03-03T01:35:58;89309.88;;;-1.27;94.02
46782;BME280;32541;46.298;11.506;2023-03-03T01:38:23;89310.75;;;-1.37;93.87
46782;BME280;32541;46.298;11.506;2023-03-03T01:40:56;89306.16;;;-1.42;93.99
46782;BME280;32541;46.298;11.506;2023-03-03T01:43:24;89299.41;;;-1.49;94.67
46782;BME280;32541;46.298;11.506;2023-03-03T01:48:35;89298.44;;;-1.33;94.65
46782;BME280;32541;46.298;11.506;2023-03-03T01:51:25;89302.31;;;-1.47;94.77
46782;BME280;32541;46.298;11.506;2023-03-03T01:53:56;89291.53;;;-1.47;94.54
46782;BME280;32541;46.298;11.506;2023-03-03T01:56:23;89287.59;;;-1.46;94.42
46782;BME280;32541;46.298;11.506;2023-03-03T01:58:52;89291.53;;;-1.47;94.25
46782;BME280;32541;46.298;11.506;2023-03-03T02:01:24;89290.34;;;-1.51;95.11
46782;BME280;32541;46.298;11.506;2023-03-03T02:03:50;89289.03;;;-1.45;95.17
46782;BME280;32541;46.298;11.506;2023-03-03T02:06:19;89286.72;;;-1.54;94.93
46782;BME280;32541;46.298;11.506;2023-03-03T02:08:58;89279.22;;;-1.61;95.35
46782;BME280;32541;46.298;11.506;2023-03-03T02:11:24;89284.44;;;-1.69;95.27
46782;BME280;32541;46.298;11.506;2023-03-03T02:13:51;89285.19;;;-1.68;95.18
46782;BME280;32541;46.298;11.506;2023-03-03T02:16:16;89283.22;;;-1.67;95.29
46782;BME280;32541;46.298;11.506;2023-03-03T02:18:42;89275.28;;;-1.60;94.68
46782;BME280;32541;46.298;11.506;2023-03-03T02:21:13;89276.09;;;-1.65;95.93
46782;BME280;32541;46.298;11.506;2023-03-03T02:24:07;89281.09;;;-1.56;95.20
46782;BME280;32541;46.298;11.506;2023-03-03T02:26:36;89270.69;;;-1.65;95.31
46782;BME280;32541;46.298;11.506;2023-03-03T02:29:03;89277.56;;;-1.64;94.87
46782;BME280;32541;46.298;11.506;2023-03-03T02:31:30;89272.72;;;-1.71;95.56
46782;BME280;32541;46.298;11.506;2023-03-03T02:33:56;89274.97;;;-1.75;96.01
46782;BME280;32541;46.298;11.506;2023-03-03T02:36:28;89272.66;;;-1.65;95.33
46782;BME280;32541;46.298;11.506;2023-03-03T02:41:59;89263.50;;;-1.76;94.56
46782;BME280;32541;46.298;11.506;2023-03-03T02:44:28;89264.44;;;-1.73;94.42
46782;BME280;32541;46.298;11.506;2023-03-03T02:46:55;89262.25;;;-1.75;94.07
46782;BME280;32541;46.298;11.506;2023-03-03T02:49:24;89255.41;;;-1.76;94.16
46782;BME280;32541;46.298;11.506;2023-03-03T02:51:49;89254.88;;;-1.74;94.19
46782;BME280;32541;46.298;11.506;2023-03-03T02:54:17;89261.75;;;-1.73;94.15
46782;BME280;32541;46.298;11.506;2023-03-03T02:56:43;89253.94;;;-1.77;94.12
46782;BME280;32541;46.298;11.506;2023-03-03T02:59:09;89256.13;;;-1.75;94.48
46782;BME280;32541;46.298;11.506;2023-03-03T03:01:35;89262.16;;;-1.69;93.83
46782;BME280;32541;46.298;11.506;2023-03-03T03:04:12;89263.25;;;-1.78;94.63
46782;BME280;32541;46.298;11.506;2023-03-03T03:06:38;89255.25;;;-1.83;94.82
46782;BME280;32541;46.298;11.506;2023-03-03T03:09:06;89247.69;;;-1.85;94.71
46782;BME280;32541;46.298;11.506;2023-03-03T03:11:32;89244.75;;;-1.87;94.39
46782;BME280;32541;46.298;11.506;2023-03-03T03:13:59;89245.78;;;-1.90;93.28
46782;BME280;32541;46.298;11.506;2023-03-03T03:16:25;89251.31;;;-1.82;93.40
46782;BME280;32541;46.298;11.506;2023-03-03T03:18:50;89246.97;;;-1.85;93.09
46782;BME280;32541;46.298;11.506;2023-03-03T03:21:16;89244.53;;;-1.89;93.37
46782;BME280;32541;46.298;11.506;2023-03-03T03:23:42;89242.13;;;-1.92;93.39
46782;BME280;32541;46.298;11.506;2023-03-03T03:26:08;89245.06;;;-1.90;93.75
46782;BME280;32541;46.298;11.506;2023-03-03T03:28:34;89244.06;;;-1.87;94.06
46782;BME280;32541;46.298;11.506;2023-03-03T03:31:00;89240.38;;;-1.90;93.47
46782;BME280;32541;46.298;11.506;2023-03-03T03:33:25;89237.19;;;-1.88;94.19
46782;BME280;32541;46.298;11.506;2023-03-03T03:35:53;89235.53;;;-1.91;93.48
46782;BME280;32541;46.298;11.506;2023-03-03T03:38:20;89232.38;;;-1.95;93.62
46782;BME280;32541;46.298;11.506;2023-03-03T03:40:45;89231.06;;;-1.89;93.65
46782;BME280;32541;46.298;11.506;2023-03-03T03:43:11;89233.84;;;-1.76;92.73
46782;BME280;32541;46.298;11.506;2023-03-03T03:45:36;89235.72;;;-1.89;92.98
46782;BME280;32541;46.298;11.506;2023-03-03T03:48:01;89228.47;;;-1.94;92.90
46782;BME280;32541;46.298;11.506;2023-03-03T03:50:27;89231.38;;;-1.92;93.01
46782;BME280;32541;46.298;11.506;2023-03-03T03:52:52;89223.06;;;-1.94;93.43
46782;BME280;32541;46.298;11.506;2023-03-03T03:55:17;89229.69;;;-1.95;93.46
46782;BME280;32541;46.298;11.506;2023-03-03T03:57:43;89225.25;;;-1.93;93.60
46782;BME280;32541;46.298;11.506;2023-03-03T04:00:10;89225.75;;;-1.94;93.27
46782;BME280;32541;46.298;11.506;2023-03-03T04:02:35;89222.72;;;-1.85;93.00
46782;BME280;32541;46.298;11.506;2023-03-03T04:05:01;89223.06;;;-1.94;93.13
46782;BME280;32541;46.298;11.506;2023-03-03T04:07:27;89219.00;;;-2.01;93.37
46782;BME280;32541;46.298;11.506;2023-03-03T04:09:52;89219.72;;;-2.00;92.96
46782;BME280;32541;46.298;11.506;2023-03-03T04:12:18;89229.28;;;-1.99;94.00
46782;BME280;32541;46.298;11.506;2023-03-03T04:14:43;89218.69;;;-1.97;93.94
46782;BME280;32541;46.298;11.506;2023-03-03T04:17:15;89222.22;;;-2.02;93.72
46782;BME280;32541;46.298;11.506;2023-03-03T04:19:41;89223.63;;;-2.01;93.67
46782;BME280;32541;46.298;11.506;2023-03-03T04:22:06;89216.75;;;-1.97;93.21
46782;BME280;32541;46.298;11.506;2023-03-03T04:24:32;89213.53;;;-1.95;93.49
46782;BME280;32541;46.298;11.506;2023-03-03T04:26:57;89217.22;;;-1.98;93.21
46782;BME280;32541;46.298;11.506;2023-03-03T04:29:22;89214.25;;;-1.95;93.06
46782;BME280;32541;46.298;11.506;2023-03-03T04:31:48;89212.75;;;-1.90;92.62
46782;BME280;32541;46.298;11.506;2023-03-03T04:34:13;89214.03;;;-1.97;93.17
46782;BME280;32541;46.298;11.506;2023-03-03T04:36:38;89214.13;;;-2.02;92.75
46782;BME280;32541;46.298;11.506;2023-03-03T04:39:04;89216.28;;;-2.01;93.46
46782;BME280;32541;46.298;11.506;2023-03-03T04:41:29;89214.53;;;-1.98;93.24
46782;BME280;32541;46.298;11.506;2023-03-03T04:43:54;89209.69;;;-2.00;93.67
46782;BME280;32541;46.298;11.506;2023-03-03T04:46:20;89209.97;;;-2.03;93.67
46782;BME280;32541;46.298;11.506;2023-03-03T04:48:45;89218.13;;;-1.90;93.89
46782;BME280;32541;46.298;11.506;2023-03-03T04:51:10;89211.28;;;-1.91;94.08
46782;BME280;32541;46.298;11.506;2023-03-03T04:53:36;89212.94;;;-1.88;94.24
46782;BME280;32541;46.298;11.506;2023-03-03T04:56:02;89217.88;;;-1.92;93.77
46782;BME280;32541;46.298;11.506;2023-03-03T04:58:29;89215.56;;;-2.01;94.03
46782;BME280;32541;46.298;11.506;2023-03-03T05:00:56;89214.91;;;-2.07;93.80
46782;BME280;32541;46.298;11.506;2023-03-03T05:03:22;89215.91;;;-2.10;93.86
46782;BME280;32541;46.298;11.506;2023-03-03T05:05:48;89216.38;;;-2.06;93.37
46782;BME280;32541;46.298;11.506;2023-03-03T05:08:14;89209.50;;;-2.07;92.64
46782;BME280;32541;46.298;11.506;2023-03-03T05:10:39;89202.81;;;-2.01;92.77
46782;BME280;32541;46.298;11.506;2023-03-03T05:13:06;89209.38;;;-1.96;92.67
46782;BME280;32541;46.298;11.506;2023-03-03T05:15:32;89207.75;;;-2.05;92.32
46782;BME280;32541;46.298;11.506;2023-03-03T05:17:57;89202.25;;;-2.12;93.79
46782;BME280;32541;46.298;11.506;2023-03-03T05:20:24;89210.25;;;-2.07;93.38
46782;BME280;32541;46.298;11.506;2023-03-03T05:22:49;89206.16;;;-2.13;93.25
46782;BME280;32541;46.298;11.506;2023-03-03T05:25:15;89205.75;;;-2.17;93.60
46782;BME280;32541;46.298;11.506;2023-03-03T05:27:41;89205.16;;;-2.10;94.12
46782;BME280;32541;46.298;11.506;2023-03-03T05:30:10;89197.81;;;-2.10;94.04
46782;BME280;32541;46.298;11.506;2023-03-03T05:32:35;89202.91;;;-2.06;93.73
46782;BME280;32541;46.298;11.506;2023-03-03T05:35:02;89203.78;;;-1.98;93.16
46782;BME280;32541;46.298;11.506;2023-03-03T05:37:28;89200.06;;;-1.95;92.91
46782;BME280;32541;46.298;11.506;2023-03-03T05:39:53;89205.97;;;-1.97;93.49
46782;BME280;32541;46.298;11.506;2023-03-03T05:42:18;89211.13;;;-1.99;93.08
46782;BME280;32541;46.298;11.506;2023-03-03T05:44:44;89211.44;;;-2.02;93.59
46782;BME280;32541;46.298;11.506;2023-03-03T05:47:09;89218.53;;;-2.05;93.38
46782;BME280;32541;46.298;11.506;2023-03-03T05:49:35;89212.00;;;-2.09;93.11
46782;BME280;32541;46.298;11.506;2023-03-03T05:52:00;89218.69;;;-1.97;94.05
46782;BME280;32541;46.298;11.506;2023-03-03T05:54:26;89219.66;;;-1.95;94.36
46782;BME280;32541;46.298;11.506;2023-03-03T05:56:52;89217.47;;;-1.96;93.08
46782;BME280;32541;46.298;11.506;2023-03-03T05:59:17;89213.09;;;-1.99;92.67
46782;BME280;32541;46.298;11.506;2023-03-03T06:01:43;89220.16;;;-1.96;92.49
46782;BME280;32541;46.298;11.506;2023-03-03T06:04:09;89224.09;;;-1.97;92.70
46782;BME280;32541;46.298;11.506;2023-03-03T06:06:35;89216.09;;;-2.03;93.01
46782;BME280;32541;46.298;11.506;2023-03-03T06:09:01;89220.00;;;-2.04;92.96
46782;BME280;32541;46.298;11.506;2023-03-03T06:11:26;89224.44;;;-2.06;93.14
46782;BME280;32541;46.298;11.506;2023-03-03T06:13:51;89227.88;;;-2.06;93.04
46782;BME280;32541;46.298;11.506;2023-03-03T06:16:17;89229.63;;;-2.08;93.43
46782;BME280;32541;46.298;11.506;2023-03-03T06:18:42;89235.44;;;-2.04;93.42
46782;BME280;32541;46.298;11.506;2023-03-03T06:21:07;89230.50;;;-2.00;93.37
46782;BME280;32541;46.298;11.506;2023-03-03T06:23:33;89230.50;;;-2.00;93.65
46782;BME280;32541;46.298;11.506;2023-03-03T06:25:58;89224.66;;;-2.04;93.70
46782;BME280;32541;46.298;11.506;2023-03-03T06:28:23;89233.41;;;-1.98;94.64
46782;BME280;32541;46.298;11.506;2023-03-03T06:30:53;89228.16;;;-1.91;94.76
46782;BME280;32541;46.298;11.506;2023-03-03T06:33:19;89231.94;;;-1.81;93.35
46782;BME280;32541;46.298;11.506;2023-03-03T06:35:51;89226.25;;;-1.77;93.24
46782;BME280;32541;46.298;11.506;2023-03-03T06:38:17;89238.44;;;-1.71;93.27
46782;BME280;32541;46.298;11.506;2023-03-03T06:40:44;89226.34;;;-1.64;93.31
46782;BME280;32541;46.298;11.506;2023-03-03T06:43:09;89248.13;;;-1.30;92.86
46782;BME280;32541;46.298;11.506;2023-03-03T06:45:34;89237.44;;;-1.36;92.29
46782;BME280;32541;46.298;11.506;2023-03-03T06:48:00;89247.63;;;-1.29;90.87
46782;BME280;32541;46.298;11.506;2023-03-03T06:50:26;89249.59;;;-1.29;87.96
46782;BME280;32541;46.298;11.506;2023-03-03T06:53:05;89253.31;;;-1.32;88.38
46782;BME280;32541;46.298;11.506;2023-03-03T06:55:31;89254.47;;;-1.28;89.15
46782;BME280;32541;46.298;11.506;2023-03-03T06:57:58;89257.16;;;-1.28;90.05
46782;BME280;32541;46.298;11.506;2023-03-03T07:00:25;89266.22;;;-1.25;90.61
46782;BME280;32541;46.298;11.506;2023-03-03T07:03:10;89269.31;;;-1.21;91.00
46782;BME280;32541;46.298;11.506;2023-03-03T07:05:36;89273.84;;;-1.10;90.72
46782;BME280;32541;46.298;11.506;2023-03-03T07:08:06;89261.00;;;-1.04;90.16
46782;BME280;32541;46.298;11.506;2023-03-03T07:10:34;89258.22;;;-0.99;89.86
46782;BME280;32541;46.298;11.506;2023-03-03T07:13:20;89259.56;;;-0.92;90.12
46782;BME280;32541;46.298;11.506;2023-03-03T07:15:48;89260.22;;;-0.86;88.99
46782;BME280;32541;46.298;11.506;2023-03-03T07:20:57;89259.63;;;-0.66;88.17
46782;BME280;32541;46.298;11.506;2023-03-03T07:23:25;89257.97;;;-0.56;88.62
46782;BME280;32541;46.298;11.506;2023-03-03T07:25:52;89256.84;;;-0.34;88.55
46782;BME280;32541;46.298;11.506;2023-03-03T07:28:26;89255.72;;;-0.26;87.44
46782;BME280;32541;46.298;11.506;2023-03-03T07:30:53;89266.00;;;-0.11;86.05
46782;BME280;32541;46.298;11.506;2023-03-03T07:33:43;89258.63;;;-0.37;85.73
46782;BME280;32541;46.298;11.506;2023-03-03T07:38:57;89262.13;;;-0.03;83.35
46782;BME280;32541;46.298;11.506;2023-03-03T07:41:23;89264.44;;;-0.20;83.14
46782;BME280;32541;46.298;11.506;2023-03-03T07:43:52;89256.00;;;0.10;82.76
46782;BME280;32541;46.298;11.506;2023-03-03T07:46:46;89261.53;;;0.18;82.61
46782;BME280;32541;46.298;11.506;2023-03-03T07:49:23;89253.06;;;0.34;83.17
46782;BME280;32541;46.298;11.506;2023-03-03T07:51:55;89257.66;;;0.60;83.10
46782;BME280;32541;46.298;11.506;2023-03-03T07:54:34;89256.34;;;0.87;82.11
46782;BME280;32541;46.298;11.506;2023-03-03T07:59:36;89261.56;;;1.06;82.50
46782;BME280;32541;46.298;11.506;2023-03-03T08:02:04;89265.03;;;1.27;82.90
46782;BME280;32541;46.298;11.506;2023-03-03T08:04:49;89252.97;;;1.56;83.17
46782;BME280;32541;46.298;11.506;2023-03-03T08:07:18;89249.28;;;2.03;83.33
46782;BME280;32541;46.298;11.506;2023-03-03T08:09:57;89254.84;;;2.69;82.53
46782;BME280;32541;46.298;11.506;2023-03-03T08:12:28;89250.47;;;3.40;80.90
46782;BME280;32541;46.298;11.506;2023-03-03T08:14:57;89254.84;;;3.73;75.91
46782;BME280;32541;46.298;11.506;2023-03-03T08:17:32;89255.19;;;3.92;70.78
46782;BME280;32541;46.298;11.506;2023-03-03T08:19:59;89250.50;;;3.70;71.34
46782;BME280;32541;46.298;11.506;2023-03-03T08:22:34;89262.28;;;3.50;69.28
46782;BME280;32541;46.298;11.506;2023-03-03T08:25:00;89263.25;;;2.43;73.91
46782;BME280;32541;46.298;11.506;2023-03-03T08:27:26;89260.22;;;2.54;70.88
46782;BME280;32541;46.298;11.506;2023-03-03T08:29:51;89261.75;;;2.70;69.87
46782;BME280;32541;46.298;11.506;2023-03-03T08:32:17;89267.19;;;2.77;68.06
46782;BME280;32541;46.298;11.506;2023-03-03T08:34:42;89259.47;;;3.04;68.70
46782;BME280;32541;46.298;11.506;2023-03-03T08:37:07;89261.34;;;3.24;67.96
46782;BME280;32541;46.298;11.506;2023-03-03T08:39:33;89260.28;;;3.65;66.97
46782;BME280;32541;46.298;11.506;2023-03-03T08:41:58;89258.78;;;4.25;65.92
46782;BME280;32541;46.298;11.506;2023-03-03T08:44:23;89253.22;;;4.70;64.46
46782;BME280;32541;46.298;11.506;2023-03-03T08:46:49;89248.47;;;5.18;62.18
46782;BME280;32541;46.298;11.506;2023-03-03T08:49:14;89246.09;;;5.54;59.99
46782;BME280;32541;46.298;11.506;2023-03-03T08:51:40;89251.19;;;5.50;58.68
46782;BME280;32541;46.298;11.506;2023-03-03T08:54:06;89243.88;;;5.28;61.69
46782;BME280;32541;46.298;11.506;2023-03-03T08:56:31;89251.66;;;5.64;57.45
46782;BME280;32541;46.298;11.506;2023-03-03T08:58:56;89256.38;;;5.64;56.45
46782;BME280;32541;46.298;11.506;2023-03-03T09:01:22;89253.88;;;5.83;55.85
46782;BME280;32541;46.298;11.506;2023-03-03T09:03:47;89252.44;;;5.82;55.71
46782;BME280;32541;46.298;11.506;2023-03-03T09:06:13;89254.38;;;6.13;55.29
46782;BME280;32541;46.298;11.506;2023-03-03T09:08:38;89261.25;;;5.97;56.10
46782;BME280;32541;46.298;11.506;2023-03-03T09:11:12;89259.03;;;6.21;54.93
46782;BME280;32541;46.298;11.506;2023-03-03T09:13:37;89258.00;;;6.16;54.96
46782;BME280;32541;46.298;11.506;2023-03-03T09:16:12;89248.38;;;7.01;53.99
46782;BME280;32541;46.298;11.506;2023-03-03T09:18:38;89250.31;;;6.56;55.45
46782;BME280;32541;46.298;11.506;2023-03-03T09:21:23;89247.59;;;6.39;54.96
46782;BME280;32541;46.298;11.506;2023-03-03T09:28:53;89246.56;;;6.52;55.08
46782;BME280;32541;46.298;11.506;2023-03-03T09:34:09;89245.97;;;6.36;56.27
46782;BME280;32541;46.298;11.506;2023-03-03T09:36:39;89243.84;;;6.10;56.58
46782;BME280;32541;46.298;11.506;2023-03-03T09:39:31;89240.84;;;6.75;53.42
46782;BME280;32541;46.298;11.506;2023-03-03T09:51:07;89231.50;;;8.48;49.72
46782;BME280;32541;46.298;11.506;2023-03-03T09:53:46;89235.00;;;8.58;48.51
46782;BME280;32541;46.298;11.506;2023-03-03T10:04:43;89230.84;;;7.74;48.59
46782;BME280;32541;46.298;11.506;2023-03-03T10:07:25;89224.50;;;7.45;49.78
46782;BME280;32541;46.298;11.506;2023-03-03T10:10:02;89229.09;;;6.99;50.35
46782;BME280;32541;46.298;11.506;2023-03-03T10:21:11;89225.84;;;7.10;50.51
46782;BME280;32541;46.298;11.506;2023-03-03T10:23:55;89226.59;;;7.64;51.11
46782;BME280;32541;46.298;11.506;2023-03-03T10:29:41;89225.41;;;7.57;49.99
46782;BME280;32541;46.298;11.506;2023-03-03T10:40:29;89222.53;;;8.37;46.55
46782;BME280;32541;46.298;11.506;2023-03-03T10:46:20;89229.50;;;8.48;45.86
46782;BME280;32541;46.298;11.506;2023-03-03T10:49:05;89223.88;;;8.56;46.93
46782;BME280;32541;46.298;11.506;2023-03-03T10:57:13;89217.19;;;10.87;43.03
46782;BME280;32541;46.298;11.506;2023-03-03T11:02:20;89213.34;;;10.81;40.82
46782;BME280;32541;46.298;11.506;2023-03-03T11:07:34;89200.88;;;10.58;43.02
46782;BME280;32541;46.298;11.506;2023-03-03T11:26:44;89187.63;;;9.34;40.75
46782;BME280;32541;46.298;11.506;2023-03-03T11:32:19;89176.09;;;9.26;39.16
46782;BME280;32541;46.298;11.506;2023-03-03T11:37:40;89165.16;;;9.66;41.09
46782;BME280;32541;46.298;11.506;2023-03-03T11:40:18;89162.31;;;10.26;41.95
46782;BME280;32541;46.298;11.506;2023-03-03T11:43:09;89159.50;;;10.78;40.41
46782;BME280;32541;46.298;11.506;2023-03-03T11:45:47;89155.88;;;10.75;40.28
46782;BME280;32541;46.298;11.506;2023-03-03T11:50:57;89153.16;;;10.54;42.62
46782;BME280;32541;46.298;11.506;2023-03-03T11:56:49;89155.03;;;10.51;40.92
46782;BME280;32541;46.298;11.506;2023-03-03T12:01:42;89154.34;;;9.59;42.26
46782;BME280;32541;46.298;11.506;2023-03-03T12:04:19;89156.97;;;9.87;43.00
46782;BME280;32541;46.298;11.506;2023-03-03T12:09:46;89143.50;;;9.61;41.96
46782;BME280;32541;46.298;11.506;2023-03-03T12:12:16;89151.56;;;9.18;43.50
46782;BME280;32541;46.298;11.506;2023-03-03T12:20:39;89138.22;;;9.74;42.75
46782;BME280;32541;46.298;11.506;2023-03-03T12:26:19;89136.00;;;9.61;43.67
46782;BME280;32541;46.298;11.506;2023-03-03T12:28:54;89139.19;;;9.48;43.95
46782;BME280;32541;46.298;11.506;2023-03-03T12:31:39;89136.03;;;9.42;43.22
46782;BME280;32541;46.298;11.506;2023-03-03T12:34:46;89133.16;;;9.40;43.05
46782;BME280;32541;46.298;11.506;2023-03-03T12:40:12;89130.63;;;9.63;43.64
46782;BME280;32541;46.298;11.506;2023-03-03T12:46:08;89135.31;;;9.82;44.88
46782;BME280;32541;46.298;11.506;2023-03-03T12:48:46;89137.56;;;9.64;42.49
46782;BME280;32541;46.298;11.506;2023-03-03T12:56:40;89136.03;;;10.13;41.92
46782;BME280;32541;46.298;11.506;2023-03-03T12:59:16;89138.03;;;10.13;42.76
46782;BME280;32541;46.298;11.506;2023-03-03T13:01:47;89137.63;;;10.16;43.94
46782;BME280;32541;46.298;11.506;2023-03-03T13:04:39;89134.75;;;10.14;41.71
46782;BME280;32541;46.298;11.506;2023-03-03T13:07:22;89124.09;;;10.30;42.49
46782;BME280;32541;46.298;11.506;2023-03-03T13:15:30;89127.69;;;9.40;43.32
46782;BME280;32541;46.298;11.506;2023-03-03T13:18:14;89141.81;;;9.46;43.30
46782;BME280;32541;46.298;11.506;2023-03-03T13:20:53;89135.13;;;9.59;44.21
46782;BME280;32541;46.298;11.506;2023-03-03T13:23:48;89132.25;;;9.57;43.61
46782;BME280;32541;46.298;11.506;2023-03-03T13:26:36;89143.84;;;9.45;43.05
46782;BME280;32541;46.298;11.506;2023-03-03T13:29:18;89141.91;;;9.58;43.04
46782;BME280;32541;46.298;11.506;2023-03-03T13:45:25;89128.31;;;9.29;44.45
46782;BME280;32541;46.298;11.506;2023-03-03T13:50:55;89131.56;;;9.46;43.62
46782;BME280;32541;46.298;11.506;2023-03-03T13:53:36;89130.84;;;9.46;42.83
46782;BME280;32541;46.298;11.506;2023-03-03T13:58:46;89131.03;;;9.69;43.35
46782;BME280;32541;46.298;11.506;2023-03-03T14:04:14;89121.19;;;9.76;43.57
46782;BME280;32541;46.298;11.506;2023-03-03T14:06:56;89138.03;;;9.51;44.23
46782;BME280;32541;46.298;11.506;2023-03-03T14:12:03;89124.81;;;9.38;43.37
46782;BME280;32541;46.298;11.506;2023-03-03T14:15:00;89126.84;;;9.68;43.57
46782;BME280;32541;46.298;11.506;2023-03-03T14:20:30;89128.06;;;9.86;43.77
46782;BME280;32541;46.298;11.506;2023-03-03T14:23:01;89127.22;;;10.15;44.08
46782;BME280;32541;46.298;11.506;2023-03-03T14:25:55;89123.28;;;9.56;43.26
46782;BME280;32541;46.298;11.506;2023-03-03T14:28:23;89149.78;;;9.32;43.96
46782;BME280;32541;46.298;11.506;2023-03-03T14:30:52;89152.91;;;8.79;46.06
46782;BME280;32541;46.298;11.506;2023-03-03T14:33:20;89151.41;;;8.20;48.77
46782;BME280;32541;46.298;11.506;2023-03-03T14:38:23;89135.88;;;8.32;49.75
46782;BME280;32541;46.298;11.506;2023-03-03T14:41:10;89134.03;;;8.54;49.05
46782;BME280;32541;46.298;11.506;2023-03-03T14:44:00;89132.59;;;8.72;49.61
46782;BME280;32541;46.298;11.506;2023-03-03T14:48:56;89131.38;;;9.04;48.13
46782;BME280;32541;46.298;11.506;2023-03-03T14:51:25;89129.50;;;9.07;48.51
46782;BME280;32541;46.298;11.506;2023-03-03T14:53:54;89136.41;;;9.17;48.76
46782;BME280;32541;46.298;11.506;2023-03-03T14:59:29;89133.72;;;9.48;46.48
46782;BME280;32541;46.298;11.506;2023-03-03T15:04:42;89133.59;;;9.46;45.67
46782;BME280;32541;46.298;11.506;2023-03-03T15:07:34;89132.06;;;9.24;45.29
46782;BME280;32541;46.298;11.506;2023-03-03T15:10:03;89135.81;;;9.28;45.67
46782;BME280;32541;46.298;11.506;2023-03-03T15:25:56;89148.88;;;8.70;47.72
46782;BME280;32541;46.298;11.506;2023-03-03T15:28:45;89146.44;;;8.46;48.38
46782;BME280;32541;46.298;11.506;2023-03-03T15:31:43;89155.78;;;8.33;49.03
46782;BME280;32541;46.298;11.506;2023-03-03T15:42:29;89165.03;;;8.28;49.75
46782;BME280;32541;46.298;11.506;2023-03-03T15:53:38;89165.84;;;8.21;49.21
46782;BME280;32541;46.298;11.506;2023-03-03T15:58:52;89167.41;;;8.14;50.18
46782;BME280;32541;46.298;11.506;2023-03-03T16:01:41;89166.25;;;8.17;50.57
46782;BME280;32541;46.298;11.506;2023-03-03T16:04:14;89174.06;;;8.21;50.49
46782;BME280;32541;46.298;11.506;2023-03-03T16:06:55;89179.66;;;8.23;50.33
46782;BME280;32541;46.298;11.506;2023-03-03T16:09:53;89181.72;;;8.32;50.60
46782;BME280;32541;46.298;11.506;2023-03-03T16:31:51;89211.09;;;6.96;67.85
46782;BME280;32541;46.298;11.506;2023-03-03T16:39:13;89215.63;;;6.84;69.99
46782;BME280;32541;46.298;11.506;2023-03-03T16:46:46;89217.13;;;6.94;68.00
46782;BME280;32541;46.298;11.506;2023-03-03T16:52:14;89231.59;;;6.87;68.28
46782;BME280;32541;46.298;11.506;2023-03-03T16:54:52;89228.91;;;6.70;69.08
46782;BME280;32541;46.298;11.506;2023-03-03T17:00:03;89238.75;;;6.65;69.52
46782;BME280;32541;46.298;11.506;2023-03-03T17:05:50;89243.25;;;6.36;68.91
46782;BME280;32541;46.298;11.506;2023-03-03T17:08:51;89245.88;;;6.27;69.15
46782;BME280;32541;46.298;11.506;2023-03-03T17:11:40;89248.22;;;6.30;70.06
46782;BME280;32541;46.298;11.506;2023-03-03T17:17:10;89256.84;;;6.02;69.15
46782;BME280;32541;46.298;11.506;2023-03-03T17:23:01;89253.94;;;6.00;68.51
46782;BME280;32541;46.298;11.506;2023-03-03T17:26:38;89255.75;;;6.05;68.35